createdAt,value
2022-10-18T00:02:29.566Z,16.40
2022-10-18T00:07:33.504Z,16.40
2022-10-18T00:12:39.363Z,16.40
2022-10-18T00:17:43.134Z,16.40
2022-10-18T00:22:46.819Z,16.30
2022-10-18T00:27:52.547Z,16.30
2022-10-18T00:32:56.429Z,16.30
2022-10-18T00:38:00.036Z,16.30
2022-10-18T00:43:05.107Z,16.30
2022-10-18T00:48:08.791Z,16.30
2022-10-18T00:53:17.194Z,16.30
2022-10-18T00:58:22.255Z,16.30
2022-10-18T01:03:25.878Z,16.30
2022-10-18T01:08:41.373Z,16.30
2022-10-18T01:13:57.875Z,16.30
2022-10-18T01:19:05.292Z,16.30
2022-10-18T01:24:47.299Z,16.30
2022-10-18T01:30:13.304Z,16.30
2022-10-18T01:35:21.297Z,16.30
2022-10-18T01:40:26.029Z,16.30
2022-10-18T01:45:30.362Z,16.30
2022-10-18T01:50:36.479Z,16.30
2022-10-18T01:55:44.285Z,16.20
2022-10-18T02:00:53.675Z,16.20
2022-10-18T02:06:06.012Z,16.30
2022-10-18T02:11:12.445Z,16.30
2022-10-18T02:16:20.474Z,16.20
2022-10-18T02:21:28.199Z,16.20
2022-10-18T02:26:32.043Z,16.20
2022-10-18T02:31:40.774Z,16.20
2022-10-18T02:36:48.737Z,16.20
2022-10-18T02:41:52.386Z,16.20
2022-10-18T02:46:56.519Z,16.20
2022-10-18T02:52:01.581Z,16.20
2022-10-18T02:57:05.370Z,16.20
2022-10-18T03:02:09.131Z,16.20
2022-10-18T03:07:14.235Z,16.10
2022-10-18T03:12:18.249Z,16.10
2022-10-18T03:17:21.968Z,16.10
2022-10-18T03:27:32.683Z,16.10
2022-10-18T03:32:36.532Z,16.10
2022-10-18T03:37:41.547Z,16.10
2022-10-18T03:42:45.219Z,16.10
2022-10-18T03:47:48.877Z,16.10
2022-10-18T03:52:54.278Z,16.10
2022-10-18T03:57:58.068Z,16.00
2022-10-18T04:03:01.831Z,16.00
2022-10-18T04:08:07.001Z,16.00
2022-10-18T04:13:10.826Z,16.00
2022-10-18T04:18:14.477Z,16.00
2022-10-18T04:23:19.545Z,15.90
2022-10-18T04:28:23.231Z,15.90
2022-10-18T04:33:26.917Z,15.90
2022-10-18T04:38:31.915Z,15.80
2022-10-18T04:43:35.619Z,15.80
2022-10-18T04:48:40.278Z,15.80
2022-10-18T04:53:45.540Z,15.70
2022-10-18T04:58:49.288Z,15.70
2022-10-18T05:03:54.251Z,15.70
2022-10-18T05:08:59.235Z,15.70
2022-10-18T05:14:02.967Z,15.60
2022-10-18T05:19:07.295Z,15.60
2022-10-18T05:24:13.249Z,15.50
2022-10-18T05:29:17.050Z,15.50
2022-10-18T05:34:21.951Z,15.50
2022-10-18T05:39:27.069Z,15.50
2022-10-18T05:44:30.803Z,15.50
2022-10-18T05:49:34.524Z,15.50
2022-10-18T05:54:39.494Z,15.40
2022-10-18T05:59:43.150Z,15.40
2022-10-18T06:04:46.862Z,15.30
2022-10-18T06:09:51.854Z,15.30
2022-10-18T06:14:55.590Z,15.30
2022-10-18T06:19:59.201Z,15.30
2022-10-18T06:25:04.163Z,15.30
2022-10-18T06:30:09.417Z,15.20
2022-10-18T06:35:13.105Z,15.20
2022-10-18T06:40:18.278Z,15.20
2022-10-18T06:45:22.173Z,15.20
2022-10-18T06:50:25.973Z,15.20
2022-10-18T06:55:32.299Z,15.20
2022-10-18T07:00:35.913Z,15.20
2022-10-18T07:05:39.591Z,15.20
2022-10-18T07:10:51.609Z,15.10
2022-10-18T07:16:03.330Z,15.20
2022-10-18T07:21:08.789Z,15.10
2022-10-18T07:26:16.104Z,15.10
2022-10-18T07:31:19.761Z,15.10
2022-10-18T07:36:24.573Z,15.10
2022-10-18T07:41:31.904Z,15.20
2022-10-18T07:46:35.697Z,15.20
2022-10-18T07:51:39.377Z,15.20
2022-10-18T07:56:44.476Z,15.20
2022-10-18T08:01:48.199Z,15.20
2022-10-18T08:06:51.920Z,15.30
2022-10-18T08:11:56.975Z,15.30
2022-10-18T08:17:02.169Z,15.30
2022-10-18T08:22:07.225Z,15.40
2022-10-18T08:27:13.944Z,15.40
2022-10-18T08:32:18.351Z,15.50
2022-10-18T08:37:27.114Z,15.70
2022-10-18T08:42:54.818Z,16.20
2022-10-18T08:47:59.258Z,16.90
2022-10-18T08:53:13.696Z,17.60
2022-10-18T08:58:21.856Z,18.20
2022-10-18T09:03:42.691Z,18.70
2022-10-18T09:09:01.656Z,19.30
2022-10-18T09:14:25.568Z,19.80
2022-10-18T09:19:55.900Z,20.20
2022-10-18T09:25:08.496Z,20.60
2022-10-18T09:30:21.899Z,21.00
2022-10-18T09:35:28.411Z,21.30
2022-10-18T09:40:37.407Z,21.50
2022-10-18T09:45:44.981Z,21.80
2022-10-18T09:50:53.856Z,22.10
2022-10-18T09:56:01.936Z,22.30
2022-10-18T10:01:09.286Z,22.60
2022-10-18T10:06:26.486Z,22.80
2022-10-18T10:11:33.945Z,22.90
2022-10-18T10:16:49.336Z,23.00
2022-10-18T10:21:56.832Z,23.10
2022-10-18T10:27:04.076Z,23.20
2022-10-18T10:32:14.995Z,23.30
2022-10-18T10:37:34.417Z,23.30
2022-10-18T10:42:50.277Z,23.10
2022-10-18T10:48:02.577Z,22.80
2022-10-18T10:53:06.378Z,22.40
2022-10-18T10:58:19.220Z,22.10
2022-10-18T11:03:29.854Z,21.70
2022-10-18T11:08:41.230Z,21.40
2022-10-18T11:13:57.026Z,21.00
2022-10-18T11:19:30.245Z,20.90
2022-10-18T11:24:36.571Z,20.80
2022-10-18T11:29:50.348Z,20.60
2022-10-18T11:35:05.019Z,20.60
2022-10-18T11:40:27.606Z,20.60
2022-10-18T11:45:45.127Z,20.80
2022-10-18T11:51:03.570Z,20.90
2022-10-18T11:56:18.392Z,21.10
2022-10-18T12:01:28.711Z,21.40
2022-10-18T12:06:38.506Z,21.60
2022-10-18T12:11:48.747Z,21.50
2022-10-18T12:17:20.274Z,21.30
2022-10-18T12:22:29.496Z,21.20
2022-10-18T12:27:40.735Z,21.30
2022-10-18T12:32:56.518Z,21.50
2022-10-18T12:38:21.152Z,21.40
2022-10-18T12:43:27.231Z,21.10
2022-10-18T12:48:38.672Z,20.80
2022-10-18T12:53:46.028Z,20.60
2022-10-18T12:58:49.878Z,20.50
2022-10-18T13:03:56.212Z,20.30
2022-10-18T13:09:21.814Z,20.20
2022-10-18T13:14:53.640Z,20.10
2022-10-18T13:20:27.221Z,19.90
2022-10-18T13:25:42.076Z,19.80
2022-10-18T13:30:53.629Z,19.70
2022-10-18T13:35:59.382Z,19.50
2022-10-18T13:41:07.119Z,19.40
2022-10-18T13:46:10.838Z,19.30
2022-10-18T13:51:51.183Z,19.30
2022-10-18T13:57:12.352Z,19.20
2022-10-18T14:02:51.731Z,19.10
2022-10-18T14:08:04.741Z,19.00
2022-10-18T14:13:22.568Z,18.90
2022-10-18T14:18:31.833Z,18.80
2022-10-18T14:23:41.172Z,18.80
2022-10-18T14:28:59.578Z,18.70
2022-10-18T14:34:04.450Z,18.70
2022-10-18T14:39:17.989Z,18.70
2022-10-18T14:44:27.357Z,18.60
2022-10-18T14:49:32.243Z,18.50
2022-10-18T14:54:39.275Z,18.50
2022-10-18T14:59:51.582Z,18.50
2022-10-18T15:05:00.258Z,18.40
2022-10-18T15:10:06.340Z,18.30
2022-10-18T15:15:19.393Z,18.30
2022-10-18T15:20:28.356Z,18.20
2022-10-18T15:25:36.142Z,18.20
2022-10-18T15:30:43.087Z,18.20
2022-10-18T15:35:46.928Z,18.20
2022-10-18T15:40:51.027Z,18.10
2022-10-18T15:46:00.026Z,18.10
2022-10-18T15:51:11.092Z,18.00
2022-10-18T15:56:36.464Z,17.90
2022-10-18T16:01:45.357Z,17.80
2022-10-18T16:06:49.068Z,17.80
2022-10-18T16:11:56.725Z,17.80
2022-10-18T16:17:05.570Z,17.70
2022-10-18T16:27:19.513Z,17.50
2022-10-18T16:32:24.566Z,17.50
2022-10-18T16:37:28.402Z,17.40
2022-10-18T16:42:32.293Z,17.30
2022-10-18T16:47:37.642Z,17.30
2022-10-18T16:52:41.669Z,17.20
2022-10-18T16:57:45.389Z,17.10
2022-10-18T17:02:51.057Z,17.10
2022-10-18T17:07:58.100Z,17.00
2022-10-18T17:13:02.213Z,16.90
2022-10-18T17:18:07.457Z,16.80
2022-10-18T17:23:13.334Z,16.80
2022-10-18T17:28:19.161Z,16.70
2022-10-18T17:33:24.286Z,16.60
2022-10-18T17:38:28.185Z,16.50
2022-10-18T17:43:31.938Z,16.50
2022-10-18T17:48:37.099Z,16.40
2022-10-18T17:53:41.076Z,16.30
2022-10-18T17:58:45.677Z,16.30
2022-10-18T18:03:52.215Z,16.20
2022-10-18T18:08:55.949Z,16.10
2022-10-18T18:14:00.531Z,16.10
2022-10-18T18:19:09.664Z,16.00
2022-10-18T18:24:15.673Z,16.00
2022-10-18T18:29:19.651Z,15.90
2022-10-18T18:34:25.229Z,15.90
2022-10-18T18:39:30.627Z,15.80
2022-10-18T18:44:35.231Z,15.70
2022-10-18T18:49:40.441Z,15.70
2022-10-18T18:54:44.344Z,15.60
2022-10-18T18:59:48.069Z,15.60
2022-10-18T19:04:53.313Z,15.50
2022-10-18T19:09:56.986Z,15.50
2022-10-18T19:15:00.828Z,15.40
2022-10-18T19:20:06.943Z,15.30
2022-10-18T19:25:10.900Z,15.30
2022-10-18T19:30:15.669Z,15.20
2022-10-18T19:35:21.153Z,15.20
2022-10-18T19:40:24.937Z,15.10
2022-10-18T19:45:28.601Z,15.10
2022-10-18T19:50:33.672Z,15.00
2022-10-18T19:55:37.361Z,15.00
2022-10-18T20:00:41.011Z,14.90
2022-10-18T20:05:49.209Z,14.90
2022-10-18T20:11:03.843Z,14.80
2022-10-18T20:16:10.265Z,14.80
2022-10-18T20:21:16.755Z,14.80
2022-10-18T20:26:21.632Z,14.70
2022-10-18T20:31:27.493Z,14.70
2022-10-18T20:36:33.863Z,14.60
2022-10-18T20:41:40.928Z,14.60
2022-10-18T20:46:45.709Z,14.60
2022-10-18T20:51:50.867Z,14.50
2022-10-18T20:56:54.553Z,14.50
2022-10-18T21:02:00.519Z,14.40
2022-10-18T21:07:06.128Z,14.40
2022-10-18T21:17:13.450Z,14.30
2022-10-18T21:22:21.802Z,14.20
2022-10-18T21:27:26.151Z,14.20
2022-10-18T21:32:30.136Z,14.10
2022-10-18T21:37:35.385Z,14.10
2022-10-18T21:42:39.053Z,14.10
2022-10-18T21:47:42.809Z,14.00
2022-10-18T21:52:47.944Z,14.00
2022-10-18T21:57:51.653Z,14.00
2022-10-18T22:03:07.940Z,13.90
2022-10-18T22:08:13.184Z,13.90
2022-10-18T22:13:16.953Z,13.90
2022-10-18T22:18:20.651Z,13.80
2022-10-18T22:23:25.796Z,13.80
2022-10-18T22:28:32.358Z,13.80
2022-10-18T22:38:42.122Z,13.70
2022-10-18T22:43:47.622Z,13.60
2022-10-18T22:48:51.326Z,13.60
2022-10-18T22:53:56.377Z,13.50
2022-10-18T22:59:00.091Z,13.50
2022-10-18T23:04:05.449Z,13.50
2022-10-18T23:09:12.341Z,13.50
2022-10-18T23:14:15.960Z,13.50
2022-10-18T23:19:19.690Z,13.40
2022-10-18T23:24:25.411Z,13.40
2022-10-18T23:29:29.053Z,13.40
2022-10-18T23:34:32.712Z,13.30
2022-10-18T23:39:37.751Z,13.30
2022-10-18T23:44:41.367Z,13.20
2022-10-18T23:49:45.036Z,13.20
2022-10-18T23:54:50.322Z,13.20
2022-10-18T23:59:54.057Z,13.10
